Time;durP1;ratioP1;P1;durP2;ratioP2;P2;SDS_P1;SDS_P2;PMS_P1;PMS_P2;Temp;Humidity;BMP_temperature;BMP_pressure;BME280_temperature;BME280_humidity;BME280_pressure;Samples;Min_cycle;Max_cycle;Signal;HPM_P1;HPM_P2
2021/03/16 00:01:05;;;;;;;22.48;4.07;;;5.50;92.30;;;;;;5075312;28;20068;-84
2021/03/16 00:03:32;;;;;;;25.30;4.18;;;5.50;92.30;;;;;;5111305;28;20046;-83
2021/03/16 00:05:58;;;;;;;19.15;2.80;;;5.50;92.30;;;;;;5076134;28;20039;-83
2021/03/16 00:08:24;;;;;;;16.83;3.17;;;5.40;92.10;;;;;;5059102;28;20063;-83
2021/03/16 00:10:51;;;;;;;22.05;2.35;;;5.40;92.20;;;;;;5093291;28;20104;-82
2021/03/16 00:13:17;;;;;;;15.15;1.95;;;5.40;92.10;;;;;;5073765;28;20036;-84
2021/03/16 00:15:43;;;;;;;13.20;4.25;;;5.40;91.90;;;;;;5091898;28;20050;-83
2021/03/16 00:18:14;;;;;;;13.02;2.70;;;5.40;91.90;;;;;;5110051;28;20040;-83
2021/03/16 00:20:44;;;;;;;14.07;1.77;;;5.30;91.90;;;;;;5092976;28;20035;-83
2021/03/16 00:23:10;;;;;;;19.95;4.95;;;5.30;91.90;;;;;;5076363;28;20043;-82
2021/03/16 00:25:37;;;;;;;10.45;1.10;;;5.30;91.90;;;;;;5110114;28;20087;-82
2021/03/16 00:28:12;;;;;;;18.30;3.88;;;5.40;91.80;;;;;;5109985;28;20067;-82
2021/03/16 00:30:38;;;;;;;17.48;3.75;;;5.30;91.70;;;;;;5092697;28;20078;-82
2021/03/16 00:33:04;;;;;;;14.45;2.67;;;5.30;91.60;;;;;;5108829;28;20039;-82
2021/03/16 00:35:30;;;;;;;14.02;3.58;;;5.30;91.70;;;;;;5074983;28;20068;-81
2021/03/16 00:37:55;;;;;;;16.33;3.78;;;5.30;91.90;;;;;;5092379;28;20035;-83
2021/03/16 00:40:21;;;;;;;19.67;2.88;;;5.30;92.00;;;;;;5091596;28;20089;-82
2021/03/16 00:42:47;;;;;;;24.55;3.88;;;5.30;92.10;;;;;;5091903;28;20035;-82
2021/03/16 00:45:13;;;;;;;12.10;1.77;;;5.20;92.10;;;;;;5091784;28;20036;-82
2021/03/16 00:47:39;;;;;;;23.60;3.05;;;5.20;92.00;;;;;;5110107;28;20032;-82
2021/03/16 00:50:07;;;;;;;25.02;2.80;;;5.20;92.00;;;;;;5109268;28;20123;-82
2021/03/16 00:52:33;;;;;;;26.67;4.47;;;5.20;92.00;;;;;;5075406;28;20040;-83
2021/03/16 00:54:58;;;;;;;23.83;4.47;;;5.20;92.00;;;;;;5091916;28;20085;-82
2021/03/16 00:57:24;;;;;;;12.55;1.55;;;5.20;92.20;;;;;;5091048;28;20043;-82
2021/03/16 00:59:50;;;;;;;17.80;2.17;;;5.20;92.20;;;;;;5091598;28;20043;-82
2021/03/16 01:02:18;;;;;;;16.17;2.85;;;5.20;92.20;;;;;;5074582;28;20047;-81
2021/03/16 01:04:45;;;;;;;12.25;1.88;;;5.20;92.30;;;;;;5091934;28;20075;-81
2021/03/16 01:07:10;;;;;;;18.55;2.70;;;5.20;92.40;;;;;;5091371;28;20437;-81
2021/03/16 01:09:36;;;;;;;21.35;3.40;;;5.20;92.30;;;;;;5055743;28;20181;-82
2021/03/16 01:12:05;;;;;;;11.65;2.40;;;5.20;92.30;;;;;;5054669;28;20138;-83
2021/03/16 01:14:31;;;;;;;10.48;1.45;;;5.20;92.20;;;;;;5105259;28;20047;-82
2021/03/16 01:16:56;;;;;;;12.77;2.35;;;5.20;92.20;;;;;;5075342;28;20050;-81
2021/03/16 01:19:22;;;;;;;17.52;2.15;;;5.20;92.20;;;;;;5057463;28;20039;-82
2021/03/16 01:21:48;;;;;;;27.13;4.38;;;5.20;92.30;;;;;;5074146;28;20469;-81
2021/03/16 01:24:14;;;;;;;21.00;2.60;;;5.20;92.00;;;;;;5090781;28;20047;-82
2021/03/16 01:26:40;;;;;;;19.67;2.47;;;5.20;92.10;;;;;;5091190;28;20439;-83
2021/03/16 01:29:05;;;;;;;19.45;2.00;;;5.20;92.20;;;;;;5074249;28;20044;-82
2021/03/16 01:31:32;;;;;;;18.17;3.63;;;5.20;92.30;;;;;;5088851;28;20031;-82
2021/03/16 01:33:58;;;;;;;21.90;2.90;;;5.20;92.40;;;;;;5072095;28;20044;-82
2021/03/16 01:36:25;;;;;;;17.77;2.53;;;5.20;92.30;;;;;;5090751;28;20046;-81
2021/03/16 01:38:51;;;;;;;14.52;3.03;;;5.20;92.60;;;;;;5091384;28;20577;-82
2021/03/16 01:41:17;;;;;;;22.25;3.22;;;5.20;92.20;;;;;;5108623;28;20048;-82
2021/03/16 01:43:43;;;;;;;11.82;2.00;;;5.20;92.00;;;;;;5091260;28;20416;-82
2021/03/16 01:46:09;;;;;;;10.00;2.58;;;5.40;92.00;;;;;;5090499;28;20044;-81
2021/03/16 01:48:36;;;;;;;11.90;2.50;;;5.30;91.90;;;;;;5109370;28;20036;-83
2021/03/16 01:51:06;;;;;;;12.27;2.45;;;5.30;91.90;;;;;;5108358;28;20047;-83
2021/03/16 01:53:32;;;;;;;10.95;0.90;;;5.30;91.70;;;;;;5109546;28;20054;-82
2021/03/16 01:56:00;;;;;;;11.40;1.48;;;5.30;91.70;;;;;;5083794;28;20046;-82
2021/03/16 01:58:26;;;;;;;12.25;1.15;;;5.30;91.60;;;;;;5108585;28;20039;-81
2021/03/16 02:00:52;;;;;;;7.47;1.23;;;5.40;91.40;;;;;;5108576;28;20047;-81
2021/03/16 02:03:18;;;;;;;15.48;1.75;;;5.40;91.50;;;;;;5073984;28;20478;-82
2021/03/16 02:05:44;;;;;;;19.13;2.05;;;5.40;91.30;;;;;;5057467;28;20066;-81
2021/03/16 02:08:33;;;;;;;14.38;1.30;;;5.40;91.50;;;;;;5108583;28;20035;-82
2021/03/16 02:11:23;;;;;;;15.23;1.77;;;5.40;91.80;;;;;;5109050;28;20384;-81
2021/03/16 02:13:58;;;;;;;13.23;1.83;;;5.40;92.10;;;;;;5091244;28;20118;-83
2021/03/16 02:16:31;;;;;;;15.88;1.75;;;5.40;92.30;;;;;;5071204;28;20120;-82
2021/03/16 02:18:59;;;;;;;18.63;2.58;;;5.40;92.50;;;;;;5088958;28;20125;-82
2021/03/16 02:21:33;;;;;;;16.23;4.22;;;5.40;92.60;;;;;;5087992;28;20063;-82
2021/03/16 02:24:05;;;;;;;;;;;5.50;92.70;;;;;;5087350;28;20089;-81
2021/03/16 02:26:57;;;;;;;18.80;1.90;;;5.40;92.50;;;;;;5092688;28;19919;-82
2021/03/16 02:29:32;;;;;;;18.48;1.60;;;5.40;92.60;;;;;;5108253;28;20443;-81
2021/03/16 02:32:08;;;;;;;12.48;1.63;;;5.40;92.70;;;;;;5090906;28;20032;-82
2021/03/16 02:34:36;;;;;;;15.15;2.08;;;5.50;92.70;;;;;;5091023;28;20506;-82
2021/03/16 02:37:06;;;;;;;19.75;2.72;;;5.40;92.60;;;;;;5089756;28;20096;-82
2021/03/16 02:39:33;;;;;;;23.02;2.83;;;5.40;92.60;;;;;;5092459;28;20040;-83
2021/03/16 02:42:02;;;;;;;19.15;3.53;;;5.40;92.60;;;;;;5094559;28;20044;-80
2021/03/16 02:44:29;;;;;;;22.27;3.00;;;5.40;92.80;;;;;;5112240;28;20036;-81
2021/03/16 02:46:56;;;;;;;24.88;2.97;;;5.40;92.80;;;;;;5077684;28;20462;-82
2021/03/16 02:49:23;;;;;;;17.67;1.92;;;5.40;92.90;;;;;;5077180;28;20070;-81
2021/03/16 02:51:53;;;;;;;28.17;1.55;;;5.40;93.00;;;;;;5073981;28;20436;-81
2021/03/16 02:54:21;;;;;;;15.68;3.60;;;5.40;93.00;;;;;;5107985;28;20386;-82
2021/03/16 02:56:52;;;;;;;19.08;2.03;;;5.40;93.00;;;;;;5111316;28;20416;-83
2021/03/16 02:59:19;;;;;;;14.23;2.65;;;5.40;93.00;;;;;;5110399;28;20122;-82
2021/03/16 03:01:45;;;;;;;17.60;1.45;;;5.40;93.00;;;;;;5082136;28;20039;-81
2021/03/16 03:04:13;;;;;;;15.73;3.40;;;5.40;93.00;;;;;;5091412;28;20067;-82
2021/03/16 03:06:41;;;;;;;13.65;2.05;;;5.50;93.00;;;;;;5091847;28;20070;-81
2021/03/16 03:09:09;;;;;;;24.52;2.08;;;5.40;93.00;;;;;;5096335;28;20051;-82
2021/03/16 03:11:35;;;;;;;31.23;4.10;;;5.40;93.40;;;;;;5093938;28;20377;-82
2021/03/16 03:14:05;;;;;;;12.82;3.45;;;5.50;93.20;;;;;;5078967;28;20056;-81
2021/03/16 03:16:31;;;;;;;11.05;1.65;;;5.50;93.50;;;;;;5093987;28;20044;-81
2021/03/16 03:18:57;;;;;;;25.45;2.92;;;5.50;93.20;;;;;;5093711;28;20036;-80
2021/03/16 03:21:52;;;;;;;17.77;2.95;;;5.50;93.20;;;;;;5089693;28;20052;-81
2021/03/16 03:24:25;;;;;;;16.67;3.20;;;5.50;93.30;;;;;;5083525;28;20052;-81
2021/03/16 03:27:10;;;;;;;19.58;3.03;;;5.40;93.20;;;;;;5090785;28;20058;-80
2021/03/16 03:29:37;;;;;;;21.60;3.05;;;5.50;93.30;;;;;;5087720;28;20101;-81
2021/03/16 03:32:05;;;;;;;14.27;1.45;;;5.50;93.40;;;;;;5036932;28;20048;-80
2021/03/16 03:34:34;;;;;;;13.32;2.92;;;5.50;93.40;;;;;;5086656;28;20040;-83
2021/03/16 03:37:02;;;;;;;17.55;3.55;;;5.50;93.50;;;;;;5089900;28;20176;-82
2021/03/16 03:39:31;;;;;;;9.80;1.08;;;5.50;93.50;;;;;;5090804;28;20044;-81
2021/03/16 03:41:57;;;;;;;17.73;1.90;;;5.40;93.50;;;;;;5091093;28;20044;-82
2021/03/16 03:44:26;;;;;;;13.20;1.73;;;5.40;93.50;;;;;;5088907;28;20040;-83
2021/03/16 03:46:53;;;;;;;20.85;2.63;;;5.40;93.50;;;;;;5090003;28;20408;-83
2021/03/16 03:49:21;;;;;;;25.40;3.65;;;5.40;93.40;;;;;;5089251;28;20634;-84
2021/03/16 03:51:49;;;;;;;18.92;1.98;;;5.40;93.40;;;;;;5089859;28;20039;-83
2021/03/16 03:54:16;;;;;;;16.02;1.25;;;5.40;93.40;;;;;;5089161;28;20036;-83
2021/03/16 03:56:43;;;;;;;15.40;2.60;;;5.40;93.30;;;;;;5056274;28;20569;-82
2021/03/16 03:59:10;;;;;;;16.65;3.78;;;5.40;93.20;;;;;;5088989;28;20048;-83
2021/03/16 04:01:36;;;;;;;8.20;2.58;;;5.50;93.10;;;;;;5073012;28;20047;-81
2021/03/16 04:04:03;;;;;;;16.60;2.45;;;5.40;93.10;;;;;;5090927;28;20403;-83
2021/03/16 04:06:29;;;;;;;7.55;1.33;;;5.40;92.50;;;;;;5089676;28;20421;-84
2021/03/16 04:08:55;;;;;;;10.02;0.90;;;5.40;92.20;;;;;;5089474;28;20047;-83
2021/03/16 04:11:23;;;;;;;9.27;1.27;;;5.40;92.00;;;;;;5084099;28;20040;-83
2021/03/16 04:13:50;;;;;;;14.07;1.17;;;5.40;92.00;;;;;;5087234;28;20397;-83
2021/03/16 04:16:19;;;;;;;7.80;1.45;;;5.40;92.30;;;;;;5088125;28;20127;-83
2021/03/16 04:18:47;;;;;;;7.78;2.08;;;5.40;92.50;;;;;;5089798;28;20062;-83
2021/03/16 04:21:14;;;;;;;15.10;1.80;;;5.40;92.40;;;;;;5071487;28;20101;-83
2021/03/16 04:23:41;;;;;;;13.45;0.70;;;5.50;92.50;;;;;;5088618;28;20061;-83
2021/03/16 04:26:07;;;;;;;11.77;1.23;;;5.40;92.50;;;;;;5088788;28;20044;-83
2021/03/16 04:28:33;;;;;;;11.27;2.70;;;5.40;92.50;;;;;;5068736;28;20029;-82
2021/03/16 04:30:58;;;;;;;7.55;0.88;;;5.40;92.60;;;;;;5068592;28;20044;-82
2021/03/16 04:33:24;;;;;;;13.18;1.80;;;5.40;92.30;;;;;;5084402;28;20043;-81
2021/03/16 04:35:50;;;;;;;8.50;1.40;;;5.50;92.30;;;;;;5089347;28;20038;-81
2021/03/16 04:38:16;;;;;;;12.65;0.77;;;5.40;92.50;;;;;;5071379;28;20044;-80
2021/03/16 04:40:43;;;;;;;7.97;0.45;;;5.40;92.40;;;;;;5088278;28;20044;-81
2021/03/16 04:43:09;;;;;;;7.70;0.57;;;5.40;91.80;;;;;;5071180;28;20040;-80
2021/03/16 04:45:35;;;;;;;9.32;1.73;;;5.30;91.70;;;;;;5089607;28;20042;-80
2021/03/16 04:48:01;;;;;;;12.98;1.58;;;5.40;91.70;;;;;;5088665;28;20036;-81
2021/03/16 04:50:27;;;;;;;7.57;1.60;;;5.40;92.00;;;;;;5087519;28;20055;-81
2021/03/16 04:52:53;;;;;;;7.20;1.25;;;5.40;91.80;;;;;;5087944;28;20042;-81
2021/03/16 04:55:20;;;;;;;9.13;1.88;;;5.40;92.00;;;;;;5070436;28;20041;-80
2021/03/16 04:57:46;;;;;;;10.98;1.88;;;5.40;92.10;;;;;;5088217;28;20455;-82
2021/03/16 05:00:13;;;;;;;13.30;1.05;;;5.30;92.20;;;;;;5069639;28;20041;-83
2021/03/16 05:02:38;;;;;;;15.57;1.55;;;5.20;92.20;;;;;;5071002;28;20078;-83
2021/03/16 05:05:06;;;;;;;8.10;2.13;;;5.30;92.30;;;;;;5069075;28;20421;-83
2021/03/16 05:07:32;;;;;;;12.48;1.83;;;5.30;92.30;;;;;;5054644;28;20040;-82
2021/03/16 05:09:58;;;;;;;19.05;1.55;;;5.30;92.40;;;;;;5087986;28;20364;-82
2021/03/16 05:12:24;;;;;;;13.35;0.95;;;5.30;92.60;;;;;;5087186;28;20059;-81
2021/03/16 05:14:50;;;;;;;11.93;1.58;;;5.30;92.60;;;;;;5085245;28;20089;-82
2021/03/16 05:17:18;;;;;;;13.70;1.45;;;5.30;92.70;;;;;;5088085;28;20039;-83
2021/03/16 05:19:44;;;;;;;13.50;1.08;;;5.30;92.70;;;;;;5070572;28;20042;-82
2021/03/16 05:22:10;;;;;;;10.10;1.90;;;5.30;92.70;;;;;;5101426;28;20075;-81
2021/03/16 05:24:36;;;;;;;9.25;1.73;;;5.30;92.60;;;;;;5091382;28;20443;-81
2021/03/16 05:27:03;;;;;;;11.38;1.48;;;5.30;92.70;;;;;;5090522;28;20042;-82
2021/03/16 05:29:29;;;;;;;10.95;2.50;;;5.30;92.70;;;;;;5088232;28;20132;-83
2021/03/16 05:31:55;;;;;;;17.63;1.52;;;5.20;92.70;;;;;;5091077;28;20109;-81
2021/03/16 05:34:20;;;;;;;9.68;1.15;;;5.20;92.70;;;;;;5090020;28;20047;-82
2021/03/16 05:36:47;;;;;;;9.57;2.17;;;5.20;92.70;;;;;;5074162;28;20039;-81
2021/03/16 05:39:13;;;;;;;12.45;2.83;;;5.20;92.80;;;;;;5108095;28;20136;-83
2021/03/16 05:41:40;;;;;;;8.27;1.02;;;5.20;92.80;;;;;;5073801;28;20061;-80
2021/03/16 05:44:08;;;;;;;11.60;1.42;;;5.20;92.80;;;;;;5107829;28;20060;-82
2021/03/16 05:46:36;;;;;;;16.48;2.80;;;5.20;92.90;;;;;;5090980;28;20063;-81
2021/03/16 05:49:07;;;;;;;10.25;1.13;;;5.20;93.00;;;;;;5090552;28;20059;-80
2021/03/16 05:51:34;;;;;;;6.57;1.27;;;5.20;92.90;;;;;;5109084;28;20035;-79
2021/03/16 05:54:00;;;;;;;14.05;1.50;;;5.30;92.90;;;;;;5109044;27;20456;-80
2021/03/16 05:56:27;;;;;;;11.68;1.55;;;5.20;92.60;;;;;;5069639;28;20059;-80
2021/03/16 05:58:53;;;;;;;8.75;1.27;;;5.20;92.60;;;;;;5087064;28;20122;-80
2021/03/16 06:01:20;;;;;;;16.50;1.38;;;5.20;92.50;;;;;;5073125;28;20070;-81
2021/03/16 06:03:47;;;;;;;9.50;0.93;;;5.20;92.70;;;;;;5093739;28;20069;-80
2021/03/16 06:06:14;;;;;;;16.55;1.23;;;5.20;92.80;;;;;;5108170;28;20032;-83
2021/03/16 06:08:40;;;;;;;17.52;1.15;;;5.20;92.80;;;;;;5092787;28;20035;-80
2021/03/16 06:11:08;;;;;;;10.02;2.03;;;5.20;92.80;;;;;;5056870;28;20561;-81
2021/03/16 06:13:35;;;;;;;15.85;2.30;;;5.20;92.90;;;;;;5105653;28;20031;-79
2021/03/16 06:16:14;;;;;;;12.43;1.35;;;5.20;93.00;;;;;;5112754;27;20501;-80
2021/03/16 06:18:42;;;;;;;18.90;1.67;;;5.10;92.90;;;;;;5113055;28;20043;-80
2021/03/16 06:21:08;;;;;;;13.02;1.30;;;5.10;92.90;;;;;;5094147;28;20059;-80
2021/03/16 06:23:35;;;;;;;9.63;1.70;;;5.10;93.00;;;;;;5078165;28;20042;-81
2021/03/16 06:26:02;;;;;;;7.93;1.00;;;5.00;93.00;;;;;;5097097;28;20097;-81
2021/03/16 06:28:32;;;;;;;19.33;2.88;;;5.00;93.20;;;;;;5096701;28;20039;-81
2021/03/16 06:30:59;;;;;;;17.95;3.38;;;5.00;93.20;;;;;;5111223;28;20088;-81
2021/03/16 06:33:28;;;;;;;16.98;1.77;;;5.10;93.20;;;;;;5093579;28;20040;-81
2021/03/16 06:36:05;;;;;;;10.88;1.27;;;5.10;93.20;;;;;;5112136;28;20484;-82
2021/03/16 06:38:33;;;;;;;13.30;1.48;;;5.10;93.30;;;;;;5094480;28;20111;-82
2021/03/16 06:41:09;;;;;;;21.50;1.30;;;5.20;93.30;;;;;;5112063;27;20047;-82
2021/03/16 06:43:35;;;;;;;16.88;1.92;;;5.20;93.40;;;;;;5112278;28;20039;-81
2021/03/16 06:46:01;;;;;;;12.98;2.03;;;5.20;93.40;;;;;;5089934;28;20038;-81
2021/03/16 06:48:33;;;;;;;15.23;1.27;;;5.20;93.40;;;;;;5079525;28;20036;-81
2021/03/16 06:51:12;;;;;;;13.73;1.45;;;5.20;93.40;;;;;;5112737;28;20158;-82
2021/03/16 06:53:38;;;;;;;10.75;1.55;;;5.20;93.50;;;;;;5101184;28;20073;-81
2021/03/16 06:56:04;;;;;;;18.15;3.55;;;5.30;93.30;;;;;;5076166;28;20043;-81
2021/03/16 06:58:35;;;;;;;13.40;0.85;;;5.30;93.40;;;;;;5099761;28;20062;-82
2021/03/16 07:01:10;;;;;;;20.13;2.03;;;5.40;93.40;;;;;;5096619;28;20066;-81
2021/03/16 07:03:37;;;;;;;14.35;1.55;;;5.40;93.30;;;;;;5110832;28;20071;-81
2021/03/16 07:06:13;;;;;;;9.95;1.20;;;5.50;93.30;;;;;;5093401;28;20575;-82
2021/03/16 07:08:41;;;;;;;10.35;2.05;;;5.50;93.30;;;;;;5111832;28;20385;-81
2021/03/16 07:11:12;;;;;;;9.45;0.75;;;5.60;93.40;;;;;;5082838;28;20100;-81
2021/03/16 07:13:39;;;;;;;20.55;3.53;;;5.60;93.40;;;;;;5111870;28;20036;-82
2021/03/16 07:16:06;;;;;;;14.85;1.83;;;5.70;93.50;;;;;;5098470;28;20040;-81
2021/03/16 07:18:37;;;;;;;18.70;1.58;;;5.90;93.40;;;;;;5098527;28;20035;-82
2021/03/16 07:21:07;;;;;;;10.60;1.48;;;5.90;93.30;;;;;;5111172;28;20406;-82
2021/03/16 07:23:50;;;;;;;11.98;1.83;;;6.10;93.20;;;;;;5096441;28;20067;-82
2021/03/16 07:26:17;;;;;;;12.15;1.35;;;6.30;93.30;;;;;;5111001;28;20097;-81
2021/03/16 07:28:45;;;;;;;12.20;0.98;;;6.40;92.70;;;;;;5095039;28;20114;-81
2021/03/16 07:31:12;;;;;;;5.65;0.77;;;6.40;91.70;;;;;;5093180;28;20802;-80
2021/03/16 07:33:39;;;;;;;4.32;1.00;;;6.40;91.70;;;;;;5082637;28;20039;-81
2021/03/16 07:36:05;;;;;;;6.63;0.77;;;6.40;91.50;;;;;;5110573;28;20043;-81
2021/03/16 07:38:32;;;;;;;9.48;0.75;;;6.30;91.00;;;;;;5111101;28;20092;-80
2021/03/16 07:41:02;;;;;;;9.25;0.43;;;6.80;92.00;;;;;;5110954;27;20039;-80
2021/03/16 07:43:34;;;;;;;11.27;1.42;;;7.70;90.80;;;;;;5075709;28;20096;-81
2021/03/16 07:46:20;;;;;;;6.68;0.47;;;8.60;89.60;;;;;;5092911;28;20047;-80
2021/03/16 07:48:47;;;;;;;8.57;0.40;;;9.00;86.20;;;;;;5110616;28;20046;-82
2021/03/16 07:51:21;;;;;;;8.13;1.55;;;9.60;87.80;;;;;;5094150;28;20134;-82
2021/03/16 07:53:57;;;;;;;9.40;0.55;;;10.20;86.80;;;;;;5096596;28;20044;-80
2021/03/16 07:56:25;;;;;;;8.30;0.60;;;10.90;85.00;;;;;;5094763;28;20431;-82
2021/03/16 07:58:51;;;;;;;8.35;0.60;;;10.70;83.00;;;;;;5094508;28;20049;-80
2021/03/16 08:01:17;;;;;;;10.73;0.45;;;9.80;83.00;;;;;;5093283;28;20036;-81
2021/03/16 08:03:43;;;;;;;8.82;0.40;;;9.90;85.70;;;;;;5110429;28;20104;-81
2021/03/16 08:06:31;;;;;;;8.10;0.88;;;9.50;85.30;;;;;;5075064;28;20112;-81
2021/03/16 08:08:57;;;;;;;8.32;0.60;;;8.80;82.50;;;;;;5078523;28;20047;-81
2021/03/16 08:11:34;;;;;;;9.93;1.30;;;8.30;86.50;;;;;;5097102;28;20049;-80
2021/03/16 08:14:02;;;;;;;10.23;1.02;;;8.00;88.30;;;;;;5079915;28;20062;-82
2021/03/16 08:16:38;;;;;;;7.88;0.40;;;8.20;88.40;;;;;;5110246;28;20059;-81
2021/03/16 08:19:15;;;;;;;7.13;0.93;;;8.90;84.60;;;;;;5092859;28;20039;-79
2021/03/16 08:21:43;;;;;;;11.65;1.25;;;9.20;84.20;;;;;;5092720;28;20058;-81
2021/03/16 08:24:15;;;;;;;8.38;1.65;;;9.60;82.20;;;;;;5093253;28;20035;-80
2021/03/16 08:26:52;;;;;;;10.65;1.52;;;9.90;84.00;;;;;;5093116;28;20122;-82
2021/03/16 08:29:26;;;;;;;5.43;0.70;;;10.60;79.60;;;;;;5096135;28;20071;-82
2021/03/16 08:31:53;;;;;;;8.70;0.70;;;11.10;81.20;;;;;;5106446;28;20443;-83
2021/03/16 08:34:22;;;;;;;7.75;0.95;;;11.20;79.30;;;;;;5096683;28;20568;-82
2021/03/16 08:36:48;;;;;;;10.40;1.05;;;11.40;78.50;;;;;;5109131;28;20193;-82
2021/03/16 08:39:28;;;;;;;8.60;1.77;;;11.30;80.10;;;;;;5067643;28;20039;-82
2021/03/16 08:41:53;;;;;;;14.80;1.13;;;11.40;77.40;;;;;;5110233;28;20078;-82
2021/03/16 08:44:19;;;;;;;5.85;2.10;;;11.60;79.80;;;;;;5073735;28;20071;-81
2021/03/16 08:46:45;;;;;;;9.55;0.43;;;11.00;79.00;;;;;;5093720;28;20039;-81
2021/03/16 08:49:16;;;;;;;14.40;1.50;;;10.40;80.90;;;;;;5091018;28;20039;-81
2021/03/16 08:51:42;;;;;;;8.80;0.77;;;9.70;82.30;;;;;;5094782;28;20035;-82
2021/03/16 08:54:08;;;;;;;6.15;0.47;;;9.00;83.70;;;;;;5093625;28;20031;-81
2021/03/16 08:56:33;;;;;;;8.75;1.40;;;8.40;85.00;;;;;;5094857;28;20042;-79
2021/03/16 08:59:04;;;;;;;6.72;0.30;;;7.90;87.70;;;;;;5092800;28;20050;-79
2021/03/16 09:01:32;;;;;;;5.43;0.55;;;7.40;88.70;;;;;;5092227;28;20525;-79
2021/03/16 09:04:11;;;;;;;8.30;1.25;;;7.10;89.30;;;;;;5074842;28;20124;-78
2021/03/16 09:06:38;;;;;;;9.15;0.77;;;6.90;90.50;;;;;;5071708;28;20051;-78
2021/03/16 09:09:05;;;;;;;7.55;0.50;;;6.80;90.80;;;;;;5095806;28;20128;-80
2021/03/16 09:11:33;;;;;;;4.57;0.80;;;6.80;91.10;;;;;;5090993;28;20042;-79
2021/03/16 09:14:16;;;;;;;16.17;1.02;;;7.10;91.80;;;;;;5096141;28;20046;-79
2021/03/16 09:16:43;;;;;;;11.27;1.70;;;7.50;91.20;;;;;;5090726;28;20039;-78
2021/03/16 09:19:17;;;;;;;9.75;1.42;;;7.60;91.20;;;;;;5091159;28;20497;-79
2021/03/16 09:22:00;;;;;;;15.10;2.70;;;7.80;91.00;;;;;;5108888;28;20055;-79
2021/03/16 09:24:29;;;;;;;8.45;0.88;;;7.80;91.20;;;;;;5086941;28;20058;-79
2021/03/16 09:26:56;;;;;;;10.63;1.08;;;7.90;91.10;;;;;;5108876;28;20582;-79
2021/03/16 09:29:28;;;;;;;12.57;2.03;;;8.10;91.30;;;;;;5103773;28;20046;-79
2021/03/16 09:31:54;;;;;;;11.82;1.17;;;8.20;90.60;;;;;;5106988;28;20051;-79
2021/03/16 09:34:20;;;;;;;5.82;0.93;;;8.30;89.80;;;;;;5075462;28;20034;-79
2021/03/16 09:36:57;;;;;;;10.63;1.45;;;8.20;90.10;;;;;;5090512;28;20436;-79
2021/03/16 09:39:23;;;;;;;9.25;0.68;;;8.20;88.10;;;;;;5106699;28;20180;-79
2021/03/16 09:41:56;;;;;;;11.57;2.25;;;8.00;89.30;;;;;;5108764;28;20210;-79
2021/03/16 09:44:31;;;;;;;10.13;1.30;;;7.90;89.70;;;;;;5089213;28;20590;-79
2021/03/16 09:46:57;;;;;;;8.68;0.70;;;7.80;89.80;;;;;;5090745;28;20292;-79
2021/03/16 09:49:28;;;;;;;15.43;1.38;;;7.70;89.10;;;;;;5107748;28;20432;-79
2021/03/16 09:51:54;;;;;;;8.52;2.05;;;7.90;89.50;;;;;;5108601;28;20038;-78
2021/03/16 09:54:20;;;;;;;10.77;0.75;;;8.10;89.60;;;;;;5091743;28;20048;-79
2021/03/16 09:56:51;;;;;;;12.30;1.58;;;8.20;88.20;;;;;;5091581;28;20047;-79
2021/03/16 09:59:17;;;;;;;8.93;0.75;;;8.40;87.90;;;;;;5090931;28;20039;-78
2021/03/16 10:01:45;;;;;;;5.30;0.60;;;8.60;88.80;;;;;;5099016;28;20043;-78
2021/03/16 10:04:14;;;;;;;6.85;0.50;;;8.70;88.10;;;;;;5107875;28;20040;-79
2021/03/16 10:06:42;;;;;;;6.35;1.05;;;8.70;85.70;;;;;;5096080;28;20035;-79
2021/03/16 10:09:17;;;;;;;11.27;1.60;;;8.70;85.70;;;;;;5107831;28;20040;-79
2021/03/16 10:11:43;;;;;;;4.97;0.50;;;8.50;86.70;;;;;;5090311;28;20031;-79
2021/03/16 10:14:10;;;;;;;13.00;1.27;;;8.30;86.80;;;;;;5104671;28;20100;-78
2021/03/16 10:16:36;;;;;;;5.65;0.30;;;8.40;87.30;;;;;;5092261;28;20070;-78
2021/03/16 10:19:02;;;;;;;7.32;0.57;;;8.30;84.00;;;;;;5091185;28;20043;-78
2021/03/16 10:21:30;;;;;;;2.92;0.30;;;8.20;84.40;;;;;;5071504;28;20353;-78
2021/03/16 10:23:58;;;;;;;7.07;0.90;;;8.30;86.60;;;;;;5086913;28;20067;-78
2021/03/16 10:26:25;;;;;;;6.70;0.77;;;8.50;85.00;;;;;;5089286;28;20071;-78
2021/03/16 10:28:50;;;;;;;7.45;0.40;;;8.70;86.00;;;;;;5096676;28;20059;-78
2021/03/16 10:31:22;;;;;;;7.75;0.40;;;9.00;84.90;;;;;;5103729;28;20464;-78
2021/03/16 10:33:52;;;;;;;4.90;0.75;;;9.10;83.80;;;;;;5103466;28;20120;-79
2021/03/16 10:36:20;;;;;;;8.93;0.65;;;9.10;85.60;;;;;;5107908;28;20039;-78
2021/03/16 10:38:48;;;;;;;6.30;0.70;;;9.00;85.80;;;;;;5092347;28;20040;-78
2021/03/16 10:41:15;;;;;;;8.40;0.88;;;9.00;83.90;;;;;;5090861;28;20048;-79
2021/03/16 10:43:41;;;;;;;9.48;1.08;;;9.00;84.30;;;;;;5108307;28;20172;-80
2021/03/16 10:46:07;;;;;;;7.45;1.05;;;9.20;83.10;;;;;;5107960;28;20035;-79
2021/03/16 10:48:33;;;;;;;10.63;1.13;;;9.20;84.50;;;;;;5096440;28;20043;-78
2021/03/16 10:50:59;;;;;;;3.10;0.47;;;9.20;84.30;;;;;;5090257;28;20043;-79
2021/03/16 10:53:25;;;;;;;7.43;0.40;;;9.30;83.70;;;;;;5107770;27;20045;-80
2021/03/16 10:55:51;;;;;;;6.28;0.82;;;9.20;83.70;;;;;;5108415;28;20412;-79
2021/03/16 10:58:16;;;;;;;3.53;0.70;;;9.10;84.60;;;;;;5080341;28;20089;-79
2021/03/16 11:00:42;;;;;;;4.07;0.68;;;9.00;85.00;;;;;;5110021;27;20584;-79
2021/03/16 11:03:08;;;;;;;9.82;0.57;;;9.00;85.80;;;;;;5064568;28;20509;-79
2021/03/16 11:05:34;;;;;;;13.40;0.82;;;9.10;84.00;;;;;;5099037;28;20035;-80
2021/03/16 11:08:00;;;;;;;5.25;1.85;;;9.10;83.50;;;;;;5112119;28;20173;-79
2021/03/16 11:10:26;;;;;;;8.63;1.60;;;9.00;85.00;;;;;;5111353;27;20101;-79
2021/03/16 11:12:53;;;;;;;6.65;1.40;;;8.90;86.90;;;;;;5109115;28;20035;-79
2021/03/16 11:15:19;;;;;;;20.23;2.67;;;8.90;85.80;;;;;;5110341;28;20358;-79
2021/03/16 11:17:44;;;;;;;9.73;0.40;;;8.80;86.10;;;;;;5111404;28;20035;-79
2021/03/16 11:20:11;;;;;;;9.05;0.40;;;8.80;86.40;;;;;;5110786;28;20404;-80
2021/03/16 11:22:38;;;;;;;9.43;0.95;;;8.90;85.40;;;;;;5101726;28;20173;-79
2021/03/16 11:25:05;;;;;;;8.98;0.50;;;9.10;85.00;;;;;;5097399;28;20044;-79
2021/03/16 11:27:31;;;;;;;7.32;0.60;;;9.10;86.00;;;;;;5111369;27;20047;-80
2021/03/16 11:29:57;;;;;;;3.85;0.40;;;9.00;84.90;;;;;;5108381;28;20452;-79
2021/03/16 11:32:22;;;;;;;9.43;1.13;;;9.20;85.30;;;;;;5110296;28;20373;-79
2021/03/16 11:34:48;;;;;;;7.35;1.20;;;9.30;83.80;;;;;;5094057;28;20369;-80
2021/03/16 11:37:14;;;;;;;13.68;1.85;;;9.40;83.80;;;;;;5077773;28;20378;-79
2021/03/16 11:39:41;;;;;;;8.05;1.98;;;9.40;83.30;;;;;;5093564;28;20043;-79
2021/03/16 11:42:07;;;;;;;6.90;0.60;;;9.50;83.90;;;;;;5110417;28;20044;-79
2021/03/16 11:44:32;;;;;;;7.03;1.25;;;9.50;83.60;;;;;;5099361;28;20036;-79
2021/03/16 11:46:58;;;;;;;13.48;0.60;;;9.60;83.30;;;;;;5111089;28;20047;-80
2021/03/16 11:49:24;;;;;;;3.60;0.47;;;9.60;82.80;;;;;;5092581;28;20039;-80
2021/03/16 11:51:50;;;;;;;4.25;0.30;;;9.50;81.40;;;;;;5080032;28;20119;-80
2021/03/16 11:54:16;;;;;;;7.20;0.43;;;9.80;84.10;;;;;;5110217;28;20347;-79
2021/03/16 11:56:41;;;;;;;7.78;0.43;;;9.90;84.10;;;;;;5073169;28;20043;-79
2021/03/16 11:59:07;;;;;;;11.20;1.17;;;10.00;82.80;;;;;;5075388;28;20039;-79
2021/03/16 12:01:33;;;;;;;7.72;0.30;;;10.30;84.40;;;;;;5080975;28;20040;-80
2021/03/16 12:03:59;;;;;;;9.23;0.57;;;10.50;82.00;;;;;;5076230;28;20044;-80
2021/03/16 12:06:25;;;;;;;8.15;2.05;;;10.60;79.10;;;;;;5061323;28;20130;-79
2021/03/16 12:08:51;;;;;;;4.68;1.00;;;10.40;80.90;;;;;;5110594;28;20059;-80
2021/03/16 12:11:16;;;;;;;6.63;0.30;;;10.30;81.00;;;;;;5058934;28;20048;-80
2021/03/16 12:13:42;;;;;;;5.10;0.45;;;10.10;79.60;;;;;;5093110;28;20036;-80
2021/03/16 12:16:08;;;;;;;7.35;1.65;;;9.90;78.50;;;;;;5110064;28;20042;-80
2021/03/16 12:18:34;;;;;;;8.43;0.93;;;9.70;79.00;;;;;;5072109;28;20028;-80
2021/03/16 12:20:59;;;;;;;7.05;0.60;;;9.80;80.90;;;;;;5095981;28;20332;-79
2021/03/16 12:23:25;;;;;;;6.07;0.40;;;9.90;81.80;;;;;;5079295;28;20716;-79
2021/03/16 12:25:54;;;;;;;5.60;0.73;;;10.20;81.50;;;;;;5073975;28;20044;-79
2021/03/16 12:28:23;;;;;;;8.60;1.50;;;10.40;78.90;;;;;;5092512;28;20097;-80
2021/03/16 12:30:49;;;;;;;8.07;1.00;;;10.50;78.80;;;;;;5107922;28;20088;-79
2021/03/16 12:33:20;;;;;;;6.68;1.85;;;10.40;78.60;;;;;;5076268;28;20085;-79
2021/03/16 12:35:45;;;;;;;6.35;1.48;;;10.40;81.20;;;;;;5091913;28;20046;-80
2021/03/16 12:38:11;;;;;;;7.30;0.38;;;10.60;78.80;;;;;;5058136;28;20035;-79
2021/03/16 12:40:37;;;;;;;6.30;1.38;;;10.70;77.80;;;;;;5098179;28;20035;-80
2021/03/16 12:43:03;;;;;;;4.70;1.00;;;10.70;78.20;;;;;;5109299;27;20044;-79
2021/03/16 12:45:29;;;;;;;2.28;0.20;;;10.60;79.00;;;;;;5096896;28;20136;-79
2021/03/16 12:47:56;;;;;;;2.97;0.30;;;10.60;79.70;;;;;;5098702;28;20439;-80
2021/03/16 12:50:23;;;;;;;5.25;0.20;;;10.40;78.60;;;;;;5094822;28;20088;-80
2021/03/16 12:52:49;;;;;;;8.07;0.40;;;10.20;76.90;;;;;;5109667;28;20036;-79
2021/03/16 12:55:14;;;;;;;9.68;0.82;;;9.90;76.10;;;;;;5099113;28;20040;-80